sensor_id;sensor_type;location;lat;lon;timestamp;temperature;humidity
17296;DHT22;8766;51.480;6.872;2023-05-17T00:01:10;12.80;56.00
17296;DHT22;8766;51.480;6.872;2023-05-17T00:03:37;12.80;56.00
17296;DHT22;8766;51.480;6.872;2023-05-17T00:06:05;12.80;56.00
17296;DHT22;8766;51.480;6.872;2023-05-17T00:08:32;12.80;56.00
17296;DHT22;8766;51.480;6.872;2023-05-17T00:10:59;12.70;56.00
17296;DHT22;8766;51.480;6.872;2023-05-17T00:13:26;12.70;56.00
17296;DHT22;8766;51.480;6.872;2023-05-17T00:15:53;12.70;56.00
17296;DHT22;8766;51.480;6.872;2023-05-17T00:18:20;12.70;56.10
17296;DHT22;8766;51.480;6.872;2023-05-17T00:20:47;12.60;56.10
17296;DHT22;8766;51.480;6.872;2023-05-17T00:23:15;12.60;56.10
17296;DHT22;8766;51.480;6.872;2023-05-17T00:25:42;12.60;56.20
17296;DHT22;8766;51.480;6.872;2023-05-17T00:28:08;12.60;56.20
17296;DHT22;8766;51.480;6.872;2023-05-17T00:30:35;12.60;56.30
17296;DHT22;8766;51.480;6.872;2023-05-17T00:33:02;12.50;56.30
17296;DHT22;8766;51.480;6.872;2023-05-17T00:35:29;12.50;56.30
17296;DHT22;8766;51.480;6.872;2023-05-17T00:37:56;12.50;56.30
17296;DHT22;8766;51.480;6.872;2023-05-17T00:40:24;12.50;56.40
17296;DHT22;8766;51.480;6.872;2023-05-17T00:42:51;12.50;56.40
17296;DHT22;8766;51.480;6.872;2023-05-17T00:45:18;12.40;56.40
17296;DHT22;8766;51.480;6.872;2023-05-17T00:47:45;12.40;56.50
17296;DHT22;8766;51.480;6.872;2023-05-17T00:50:12;12.40;56.50
17296;DHT22;8766;51.480;6.872;2023-05-17T00:52:39;12.40;56.50
17296;DHT22;8766;51.480;6.872;2023-05-17T00:55:06;12.40;56.60
17296;DHT22;8766;51.480;6.872;2023-05-17T00:57:35;12.30;56.60
17296;DHT22;8766;51.480;6.872;2023-05-17T01:00:03;12.30;56.60
17296;DHT22;8766;51.480;6.872;2023-05-17T01:02:30;12.30;56.60
17296;DHT22;8766;51.480;6.872;2023-05-17T01:04:57;12.30;56.60
17296;DHT22;8766;51.480;6.872;2023-05-17T01:07:24;12.30;56.70
17296;DHT22;8766;51.480;6.872;2023-05-17T01:09:51;12.30;56.70
17296;DHT22;8766;51.480;6.872;2023-05-17T01:12:26;12.20;56.70
17296;DHT22;8766;51.480;6.872;2023-05-17T01:15:06;12.20;57.30
17296;DHT22;8766;51.480;6.872;2023-05-17T01:17:38;12.20;56.90
17296;DHT22;8766;51.480;6.872;2023-05-17T01:20:14;12.10;56.80
17296;DHT22;8766;51.480;6.872;2023-05-17T01:22:48;12.10;56.90
17296;DHT22;8766;51.480;6.872;2023-05-17T01:25:33;12.10;56.90
17296;DHT22;8766;51.480;6.872;2023-05-17T01:28:03;12.10;56.90
17296;DHT22;8766;51.480;6.872;2023-05-17T01:30:31;12.10;56.90
17296;DHT22;8766;51.480;6.872;2023-05-17T01:32:59;12.10;56.90
17296;DHT22;8766;51.480;6.872;2023-05-17T01:35:28;12.10;56.90
17296;DHT22;8766;51.480;6.872;2023-05-17T01:37:55;12.10;57.00
17296;DHT22;8766;51.480;6.872;2023-05-17T01:40:22;12.10;57.00
17296;DHT22;8766;51.480;6.872;2023-05-17T01:42:53;12.00;57.00
17296;DHT22;8766;51.480;6.872;2023-05-17T01:45:27;12.00;57.00
17296;DHT22;8766;51.480;6.872;2023-05-17T01:48:02;12.00;57.10
17296;DHT22;8766;51.480;6.872;2023-05-17T01:50:35;12.00;57.10
17296;DHT22;8766;51.480;6.872;2023-05-17T01:53:08;11.90;57.10
17296;DHT22;8766;51.480;6.872;2023-05-17T01:55:40;11.90;57.70
17296;DHT22;8766;51.480;6.872;2023-05-17T01:58:10;11.90;57.20
17296;DHT22;8766;51.480;6.872;2023-05-17T02:00:41;11.90;57.30
17296;DHT22;8766;51.480;6.872;2023-05-17T02:03:12;11.90;57.30
17296;DHT22;8766;51.480;6.872;2023-05-17T02:05:38;11.90;57.30
17296;DHT22;8766;51.480;6.872;2023-05-17T02:08:05;11.90;57.30
17296;DHT22;8766;51.480;6.872;2023-05-17T02:10:32;11.80;57.30
17296;DHT22;8766;51.480;6.872;2023-05-17T02:12:59;11.80;57.30
17296;DHT22;8766;51.480;6.872;2023-05-17T02:15:26;11.80;57.30
17296;DHT22;8766;51.480;6.872;2023-05-17T02:17:54;11.80;57.40
17296;DHT22;8766;51.480;6.872;2023-05-17T02:20:21;11.80;57.40
17296;DHT22;8766;51.480;6.872;2023-05-17T02:22:48;11.80;57.40
17296;DHT22;8766;51.480;6.872;2023-05-17T02:25:15;11.80;57.40
17296;DHT22;8766;51.480;6.872;2023-05-17T02:27:42;11.80;57.40
17296;DHT22;8766;51.480;6.872;2023-05-17T02:30:09;11.70;57.50
17296;DHT22;8766;51.480;6.872;2023-05-17T02:32:38;11.70;57.50
17296;DHT22;8766;51.480;6.872;2023-05-17T02:35:07;11.70;57.50
17296;DHT22;8766;51.480;6.872;2023-05-17T02:37:34;11.70;57.50
17296;DHT22;8766;51.480;6.872;2023-05-17T02:40:01;11.70;57.60
17296;DHT22;8766;51.480;6.872;2023-05-17T02:42:28;11.70;57.60
17296;DHT22;8766;51.480;6.872;2023-05-17T02:44:55;11.60;57.50
17296;DHT22;8766;51.480;6.872;2023-05-17T02:47:22;11.70;57.60
17296;DHT22;8766;51.480;6.872;2023-05-17T02:49:49;11.60;57.60
17296;DHT22;8766;51.480;6.872;2023-05-17T02:52:17;11.60;57.60
17296;DHT22;8766;51.480;6.872;2023-05-17T02:54:44;11.60;57.60
17296;DHT22;8766;51.480;6.872;2023-05-17T02:57:12;11.60;57.70
17296;DHT22;8766;51.480;6.872;2023-05-17T02:59:39;11.60;57.70
17296;DHT22;8766;51.480;6.872;2023-05-17T03:02:06;11.60;57.70
17296;DHT22;8766;51.480;6.872;2023-05-17T03:04:33;11.60;57.60
17296;DHT22;8766;51.480;6.872;2023-05-17T03:06:59;11.70;57.60
17296;DHT22;8766;51.480;6.872;2023-05-17T03:09:28;11.80;57.40
17296;DHT22;8766;51.480;6.872;2023-05-17T03:11:55;11.80;57.30
17296;DHT22;8766;51.480;6.872;2023-05-17T03:14:22;11.90;57.10
17296;DHT22;8766;51.480;6.872;2023-05-17T03:16:49;12.00;57.10
17296;DHT22;8766;51.480;6.872;2023-05-17T03:19:16;12.00;57.00
17296;DHT22;8766;51.480;6.872;2023-05-17T03:21:43;12.10;57.00
17296;DHT22;8766;51.480;6.872;2023-05-17T03:24:10;12.10;56.90
17296;DHT22;8766;51.480;6.872;2023-05-17T03:26:38;12.10;56.80
17296;DHT22;8766;51.480;6.872;2023-05-17T03:29:05;12.20;56.80
17296;DHT22;8766;51.480;6.872;2023-05-17T03:31:32;12.20;56.70
17296;DHT22;8766;51.480;6.872;2023-05-17T03:33:59;12.20;56.70
17296;DHT22;8766;51.480;6.872;2023-05-17T03:36:26;12.20;56.60
17296;DHT22;8766;51.480;6.872;2023-05-17T03:38:53;12.30;56.70
17296;DHT22;8766;51.480;6.872;2023-05-17T03:41:19;12.30;56.70
17296;DHT22;8766;51.480;6.872;2023-05-17T03:43:48;12.30;56.70
17296;DHT22;8766;51.480;6.872;2023-05-17T03:46:14;12.30;56.70
17296;DHT22;8766;51.480;6.872;2023-05-17T03:48:41;12.30;56.60
17296;DHT22;8766;51.480;6.872;2023-05-17T03:51:08;12.30;56.60
17296;DHT22;8766;51.480;6.872;2023-05-17T03:53:35;12.30;56.50
17296;DHT22;8766;51.480;6.872;2023-05-17T03:56:05;12.30;56.50
17296;DHT22;8766;51.480;6.872;2023-05-17T03:58:32;12.40;56.60
17296;DHT22;8766;51.480;6.872;2023-05-17T04:01:01;12.40;56.60
17296;DHT22;8766;51.480;6.872;2023-05-17T04:03:27;12.40;57.10
17296;DHT22;8766;51.480;6.872;2023-05-17T04:06:00;12.40;56.50
17296;DHT22;8766;51.480;6.872;2023-05-17T04:08:27;12.40;56.50
17296;DHT22;8766;51.480;6.872;2023-05-17T04:10:54;12.50;56.50
17296;DHT22;8766;51.480;6.872;2023-05-17T04:13:20;12.50;56.50
17296;DHT22;8766;51.480;6.872;2023-05-17T04:15:47;12.40;56.50
17296;DHT22;8766;51.480;6.872;2023-05-17T04:18:15;12.50;56.50
17296;DHT22;8766;51.480;6.872;2023-05-17T04:20:42;12.50;56.50
17296;DHT22;8766;51.480;6.872;2023-05-17T04:23:09;12.50;56.50
17296;DHT22;8766;51.480;6.872;2023-05-17T04:25:36;12.50;56.50
17296;DHT22;8766;51.480;6.872;2023-05-17T04:28:03;12.50;56.50
17296;DHT22;8766;51.480;6.872;2023-05-17T04:30:30;12.50;56.40
17296;DHT22;8766;51.480;6.872;2023-05-17T04:32:57;12.60;56.50
17296;DHT22;8766;51.480;6.872;2023-05-17T04:35:25;12.60;56.40
17296;DHT22;8766;51.480;6.872;2023-05-17T04:37:52;12.60;56.30
17296;DHT22;8766;51.480;6.872;2023-05-17T04:40:19;12.70;56.30
17296;DHT22;8766;51.480;6.872;2023-05-17T04:42:46;12.80;56.20
17296;DHT22;8766;51.480;6.872;2023-05-17T04:45:13;12.90;56.00
17296;DHT22;8766;51.480;6.872;2023-05-17T04:47:40;13.00;55.80
17296;DHT22;8766;51.480;6.872;2023-05-17T04:50:08;13.10;55.70
17296;DHT22;8766;51.480;6.872;2023-05-17T04:52:36;13.20;55.50
17296;DHT22;8766;51.480;6.872;2023-05-17T04:55:03;13.20;55.40
17296;DHT22;8766;51.480;6.872;2023-05-17T04:57:30;13.30;55.30
17296;DHT22;8766;51.480;6.872;2023-05-17T04:59:57;13.40;55.30
17296;DHT22;8766;51.480;6.872;2023-05-17T05:02:24;13.50;55.10
17296;DHT22;8766;51.480;6.872;2023-05-17T05:04:51;13.60;55.00
17296;DHT22;8766;51.480;6.872;2023-05-17T05:07:18;13.60;54.90
17296;DHT22;8766;51.480;6.872;2023-05-17T05:09:46;13.70;54.80
17296;DHT22;8766;51.480;6.872;2023-05-17T05:12:13;14.00;54.50
17296;DHT22;8766;51.480;6.872;2023-05-17T05:14:40;15.10;53.00
17296;DHT22;8766;51.480;6.872;2023-05-17T05:17:07;16.70;50.20
17296;DHT22;8766;51.480;6.872;2023-05-17T05:19:34;17.90;48.30
17296;DHT22;8766;51.480;6.872;2023-05-17T05:22:01;18.70;46.80
17296;DHT22;8766;51.480;6.872;2023-05-17T05:24:28;19.90;45.20
17296;DHT22;8766;51.480;6.872;2023-05-17T05:26:56;20.80;43.90
17296;DHT22;8766;51.480;6.872;2023-05-17T05:29:23;21.60;42.70
17296;DHT22;8766;51.480;6.872;2023-05-17T05:31:50;22.50;41.70
17296;DHT22;8766;51.480;6.872;2023-05-17T05:34:17;23.10;41.50
17296;DHT22;8766;51.480;6.872;2023-05-17T05:36:44;23.80;40.20
17296;DHT22;8766;51.480;6.872;2023-05-17T05:39:11;24.40;39.60
17296;DHT22;8766;51.480;6.872;2023-05-17T05:41:38;24.90;39.00
17296;DHT22;8766;51.480;6.872;2023-05-17T05:44:06;25.40;38.70
17296;DHT22;8766;51.480;6.872;2023-05-17T05:46:33;25.80;38.40
17296;DHT22;8766;51.480;6.872;2023-05-17T05:49:00;26.20;38.20
17296;DHT22;8766;51.480;6.872;2023-05-17T05:51:27;26.30;38.00
17296;DHT22;8766;51.480;6.872;2023-05-17T05:53:54;26.60;38.00
17296;DHT22;8766;51.480;6.872;2023-05-17T05:56:20;26.80;37.80
17296;DHT22;8766;51.480;6.872;2023-05-17T05:58:49;27.20;37.70
17296;DHT22;8766;51.480;6.872;2023-05-17T06:01:17;27.50;37.50
17296;DHT22;8766;51.480;6.872;2023-05-17T06:03:44;27.80;37.20
17296;DHT22;8766;51.480;6.872;2023-05-17T06:06:11;28.00;37.10
17296;DHT22;8766;51.480;6.872;2023-05-17T06:08:37;28.30;36.90
17296;DHT22;8766;51.480;6.872;2023-05-17T06:11:04;28.30;37.10
17296;DHT22;8766;51.480;6.872;2023-05-17T06:13:31;28.10;37.30
17296;DHT22;8766;51.480;6.872;2023-05-17T06:15:58;28.40;37.10
17296;DHT22;8766;51.480;6.872;2023-05-17T06:18:26;28.50;37.20
17296;DHT22;8766;51.480;6.872;2023-05-17T06:20:53;27.80;38.10
17296;DHT22;8766;51.480;6.872;2023-05-17T06:23:20;27.20;38.90
17296;DHT22;8766;51.480;6.872;2023-05-17T06:25:47;27.30;38.90
17296;DHT22;8766;51.480;6.872;2023-05-17T06:28:14;27.30;38.90
17296;DHT22;8766;51.480;6.872;2023-05-17T06:30:40;26.90;39.40
17296;DHT22;8766;51.480;6.872;2023-05-17T06:33:07;26.60;40.00
17296;DHT22;8766;51.480;6.872;2023-05-17T06:35:36;27.10;39.30
17296;DHT22;8766;51.480;6.872;2023-05-17T06:38:03;28.00;38.30
17296;DHT22;8766;51.480;6.872;2023-05-17T06:40:30;28.60;37.60
17296;DHT22;8766;51.480;6.872;2023-05-17T06:42:57;29.30;36.80
17296;DHT22;8766;51.480;6.872;2023-05-17T06:45:24;30.00;36.10
17296;DHT22;8766;51.480;6.872;2023-05-17T06:47:52;30.30;35.70
17296;DHT22;8766;51.480;6.872;2023-05-17T06:50:19;30.00;36.20
17296;DHT22;8766;51.480;6.872;2023-05-17T06:52:47;29.30;37.10
17296;DHT22;8766;51.480;6.872;2023-05-17T06:55:14;28.60;38.00
17296;DHT22;8766;51.480;6.872;2023-05-17T06:57:41;29.00;37.70
17296;DHT22;8766;51.480;6.872;2023-05-17T07:00:09;29.00;37.70
17296;DHT22;8766;51.480;6.872;2023-05-17T07:02:36;28.40;38.30
17296;DHT22;8766;51.480;6.872;2023-05-17T07:05:04;27.20;39.80
17296;DHT22;8766;51.480;6.872;2023-05-17T07:07:31;26.20;41.00
17296;DHT22;8766;51.480;6.872;2023-05-17T07:09:59;25.20;42.40
17296;DHT22;8766;51.480;6.872;2023-05-17T07:12:26;24.90;42.90
17296;DHT22;8766;51.480;6.872;2023-05-17T07:14:53;26.00;41.50
17296;DHT22;8766;51.480;6.872;2023-05-17T07:17:20;26.80;40.40
17296;DHT22;8766;51.480;6.872;2023-05-17T07:19:47;26.40;40.50
17296;DHT22;8766;51.480;6.872;2023-05-17T07:22:15;26.40;40.60
17296;DHT22;8766;51.480;6.872;2023-05-17T07:24:42;26.20;40.70
17296;DHT22;8766;51.480;6.872;2023-05-17T07:27:10;25.90;41.20
17296;DHT22;8766;51.480;6.872;2023-05-17T07:29:37;25.20;41.90
17296;DHT22;8766;51.480;6.872;2023-05-17T07:32:06;24.60;42.70
17296;DHT22;8766;51.480;6.872;2023-05-17T07:34:34;24.10;43.40
17296;DHT22;8766;51.480;6.872;2023-05-17T07:37:01;23.90;43.80
17296;DHT22;8766;51.480;6.872;2023-05-17T07:39:27;23.70;43.80
17296;DHT22;8766;51.480;6.872;2023-05-17T07:41:54;23.70;43.80
17296;DHT22;8766;51.480;6.872;2023-05-17T07:44:23;23.80;43.50
17296;DHT22;8766;51.480;6.872;2023-05-17T07:46:50;23.90;43.40
17296;DHT22;8766;51.480;6.872;2023-05-17T07:49:16;24.60;42.40
17296;DHT22;8766;51.480;6.872;2023-05-17T07:51:43;25.20;41.30
17296;DHT22;8766;51.480;6.872;2023-05-17T07:54:20;26.30;39.90
17296;DHT22;8766;51.480;6.872;2023-05-17T07:56:47;26.30;39.70
17296;DHT22;8766;51.480;6.872;2023-05-17T07:59:14;25.40;40.70
17296;DHT22;8766;51.480;6.872;2023-05-17T08:01:42;24.60;41.90
17296;DHT22;8766;51.480;6.872;2023-05-17T08:04:10;23.60;43.20
17296;DHT22;8766;51.480;6.872;2023-05-17T08:06:38;22.90;44.30
17296;DHT22;8766;51.480;6.872;2023-05-17T08:09:05;22.50;45.00
17296;DHT22;8766;51.480;6.872;2023-05-17T08:11:32;22.30;45.40
17296;DHT22;8766;51.480;6.872;2023-05-17T08:13:59;22.40;45.00
17296;DHT22;8766;51.480;6.872;2023-05-17T08:16:26;22.40;44.80
17296;DHT22;8766;51.480;6.872;2023-05-17T08:18:54;22.10;45.10
17296;DHT22;8766;51.480;6.872;2023-05-17T08:21:21;21.60;45.70
17296;DHT22;8766;51.480;6.872;2023-05-17T08:23:49;21.20;46.40
17296;DHT22;8766;51.480;6.872;2023-05-17T08:26:16;20.80;47.00
17296;DHT22;8766;51.480;6.872;2023-05-17T08:28:43;20.30;47.60
17296;DHT22;8766;51.480;6.872;2023-05-17T08:31:10;19.80;48.20
17296;DHT22;8766;51.480;6.872;2023-05-17T08:33:37;19.50;48.70
17296;DHT22;8766;51.480;6.872;2023-05-17T08:36:06;19.40;48.70
17296;DHT22;8766;51.480;6.872;2023-05-17T08:38:33;19.40;48.60
17296;DHT22;8766;51.480;6.872;2023-05-17T08:41:00;19.20;48.70
17296;DHT22;8766;51.480;6.872;2023-05-17T08:43:28;19.30;48.40
17296;DHT22;8766;51.480;6.872;2023-05-17T08:45:56;20.80;45.80
17296;DHT22;8766;51.480;6.872;2023-05-17T08:48:24;22.70;42.40
17296;DHT22;8766;51.480;6.872;2023-05-17T08:50:53;24.30;39.60
17296;DHT22;8766;51.480;6.872;2023-05-17T08:53:23;25.00;38.40
17296;DHT22;8766;51.480;6.872;2023-05-17T08:55:57;25.60;37.30
17296;DHT22;8766;51.480;6.872;2023-05-17T08:58:26;26.20;36.60
17296;DHT22;8766;51.480;6.872;2023-05-17T09:00:55;25.60;37.30
17296;DHT22;8766;51.480;6.872;2023-05-17T09:03:22;24.50;38.80
17296;DHT22;8766;51.480;6.872;2023-05-17T09:05:49;24.00;39.80
17296;DHT22;8766;51.480;6.872;2023-05-17T09:08:18;23.70;40.40
17296;DHT22;8766;51.480;6.872;2023-05-17T09:10:47;23.40;40.90
17296;DHT22;8766;51.480;6.872;2023-05-17T09:13:16;22.90;41.70
17296;DHT22;8766;51.480;6.872;2023-05-17T09:15:43;22.60;42.40
17296;DHT22;8766;51.480;6.872;2023-05-17T09:18:10;22.20;43.00
17296;DHT22;8766;51.480;6.872;2023-05-17T09:20:37;21.90;43.50
17296;DHT22;8766;51.480;6.872;2023-05-17T09:23:05;21.60;43.90
17296;DHT22;8766;51.480;6.872;2023-05-17T09:25:34;21.50;44.20
17296;DHT22;8766;51.480;6.872;2023-05-17T09:28:04;21.40;44.30
17296;DHT22;8766;51.480;6.872;2023-05-17T09:30:34;21.30;44.50
17296;DHT22;8766;51.480;6.872;2023-05-17T09:33:04;21.10;44.70
17296;DHT22;8766;51.480;6.872;2023-05-17T09:35:33;21.00;44.80
17296;DHT22;8766;51.480;6.872;2023-05-17T09:38:05;20.80;45.00
17296;DHT22;8766;51.480;6.872;2023-05-17T09:40:36;20.60;45.30
17296;DHT22;8766;51.480;6.872;2023-05-17T09:43:04;20.50;45.50
17296;DHT22;8766;51.480;6.872;2023-05-17T09:45:31;20.60;45.40
17296;DHT22;8766;51.480;6.872;2023-05-17T09:48:10;20.70;45.20
17296;DHT22;8766;51.480;6.872;2023-05-17T09:50:42;20.60;45.80
17296;DHT22;8766;51.480;6.872;2023-05-17T09:53:24;20.50;45.40
17296;DHT22;8766;51.480;6.872;2023-05-17T09:55:52;20.50;45.40
17296;DHT22;8766;51.480;6.872;2023-05-17T09:58:21;20.40;45.40
17296;DHT22;8766;51.480;6.872;2023-05-17T10:00:50;20.30;45.50
17296;DHT22;8766;51.480;6.872;2023-05-17T10:03:18;20.20;45.70
17296;DHT22;8766;51.480;6.872;2023-05-17T10:05:45;20.20;45.80
17296;DHT22;8766;51.480;6.872;2023-05-17T10:08:17;20.30;45.70
17296;DHT22;8766;51.480;6.872;2023-05-17T10:10:47;20.30;45.50
17296;DHT22;8766;51.480;6.872;2023-05-17T10:13:17;20.40;45.40
17296;DHT22;8766;51.480;6.872;2023-05-17T10:15:48;20.40;45.30
17296;DHT22;8766;51.480;6.872;2023-05-17T10:18:16;20.30;45.50
17296;DHT22;8766;51.480;6.872;2023-05-17T10:20:43;20.20;45.60
17296;DHT22;8766;51.480;6.872;2023-05-17T10:23:11;20.10;45.70
17296;DHT22;8766;51.480;6.872;2023-05-17T10:25:38;20.00;45.80
17296;DHT22;8766;51.480;6.872;2023-05-17T10:28:06;19.80;46.10
17296;DHT22;8766;51.480;6.872;2023-05-17T10:30:33;19.60;46.30
17296;DHT22;8766;51.480;6.872;2023-05-17T10:33:03;19.60;46.90
17296;DHT22;8766;51.480;6.872;2023-05-17T10:35:32;19.60;46.30
17296;DHT22;8766;51.480;6.872;2023-05-17T10:37:59;19.80;46.10
17296;DHT22;8766;51.480;6.872;2023-05-17T10:40:28;20.00;45.70
17296;DHT22;8766;51.480;6.872;2023-05-17T10:42:56;20.20;45.40
17296;DHT22;8766;51.480;6.872;2023-05-17T10:45:24;20.30;45.20
17296;DHT22;8766;51.480;6.872;2023-05-17T10:47:52;20.30;45.00
17296;DHT22;8766;51.480;6.872;2023-05-17T10:50:25;20.40;44.90
17296;DHT22;8766;51.480;6.872;2023-05-17T10:52:52;20.40;44.90
17296;DHT22;8766;51.480;6.872;2023-05-17T10:55:21;20.30;45.00
17296;DHT22;8766;51.480;6.872;2023-05-17T10:58:08;20.30;45.10
17296;DHT22;8766;51.480;6.872;2023-05-17T11:00:41;20.20;45.20
17296;DHT22;8766;51.480;6.872;2023-05-17T11:03:12;20.20;45.20
17296;DHT22;8766;51.480;6.872;2023-05-17T11:05:43;20.10;45.20
17296;DHT22;8766;51.480;6.872;2023-05-17T11:08:14;19.90;45.50
17296;DHT22;8766;51.480;6.872;2023-05-17T11:11:07;19.70;45.80
17296;DHT22;8766;51.480;6.872;2023-05-17T11:13:43;19.60;46.10
17296;DHT22;8766;51.480;6.872;2023-05-17T11:16:14;19.40;46.40
17296;DHT22;8766;51.480;6.872;2023-05-17T11:19:06;19.40;46.40
17296;DHT22;8766;51.480;6.872;2023-05-17T11:21:34;19.40;46.30
17296;DHT22;8766;51.480;6.872;2023-05-17T11:24:02;19.30;46.30
17296;DHT22;8766;51.480;6.872;2023-05-17T11:26:33;19.40;46.30
17296;DHT22;8766;51.480;6.872;2023-05-17T11:29:06;19.40;46.10
17296;DHT22;8766;51.480;6.872;2023-05-17T11:31:35;19.50;45.90
17296;DHT22;8766;51.480;6.872;2023-05-17T11:34:02;19.60;45.70
17296;DHT22;8766;51.480;6.872;2023-05-17T11:36:29;19.70;45.60
17296;DHT22;8766;51.480;6.872;2023-05-17T11:39:11;19.70;45.50
17296;DHT22;8766;51.480;6.872;2023-05-17T11:41:39;19.80;45.50
17296;DHT22;8766;51.480;6.872;2023-05-17T11:44:13;19.70;45.50
17296;DHT22;8766;51.480;6.872;2023-05-17T11:46:40;19.70;45.50
17296;DHT22;8766;51.480;6.872;2023-05-17T11:49:08;19.50;45.60
17296;DHT22;8766;51.480;6.872;2023-05-17T11:51:35;19.40;45.80
17296;DHT22;8766;51.480;6.872;2023-05-17T11:54:03;19.60;45.70
17296;DHT22;8766;51.480;6.872;2023-05-17T11:56:34;19.80;45.30
17296;DHT22;8766;51.480;6.872;2023-05-17T11:59:02;20.00;44.90
17296;DHT22;8766;51.480;6.872;2023-05-17T12:01:41;20.20;44.60
17296;DHT22;8766;51.480;6.872;2023-05-17T12:04:08;20.20;44.60
17296;DHT22;8766;51.480;6.872;2023-05-17T12:06:35;20.00;44.70
17296;DHT22;8766;51.480;6.872;2023-05-17T12:09:02;20.00;44.80
17296;DHT22;8766;51.480;6.872;2023-05-17T12:11:30;20.00;44.90
17296;DHT22;8766;51.480;6.872;2023-05-17T12:13:59;19.90;44.90
17296;DHT22;8766;51.480;6.872;2023-05-17T12:16:27;19.70;45.10
17296;DHT22;8766;51.480;6.872;2023-05-17T12:18:55;19.50;45.50
17296;DHT22;8766;51.480;6.872;2023-05-17T12:21:22;19.30;45.80
17296;DHT22;8766;51.480;6.872;2023-05-17T12:23:50;19.20;45.90
17296;DHT22;8766;51.480;6.872;2023-05-17T12:26:18;19.20;46.00
17296;DHT22;8766;51.480;6.872;2023-05-17T12:28:52;19.30;45.80
17296;DHT22;8766;51.480;6.872;2023-05-17T12:31:27;19.50;45.50
17296;DHT22;8766;51.480;6.872;2023-05-17T12:33:55;19.60;45.30
17296;DHT22;8766;51.480;6.872;2023-05-17T12:36:24;19.50;45.40
17296;DHT22;8766;51.480;6.872;2023-05-17T12:38:54;19.50;45.40
17296;DHT22;8766;51.480;6.872;2023-05-17T12:41:21;19.40;45.50
17296;DHT22;8766;51.480;6.872;2023-05-17T12:43:50;19.30;45.60
17296;DHT22;8766;51.480;6.872;2023-05-17T12:46:18;19.30;45.60
17296;DHT22;8766;51.480;6.872;2023-05-17T12:48:50;19.50;45.40
17296;DHT22;8766;51.480;6.872;2023-05-17T12:51:18;19.70;45.20
17296;DHT22;8766;51.480;6.872;2023-05-17T12:53:49;19.70;44.90
17296;DHT22;8766;51.480;6.872;2023-05-17T12:56:18;19.60;45.00
17296;DHT22;8766;51.480;6.872;2023-05-17T12:59:03;19.50;45.30
17296;DHT22;8766;51.480;6.872;2023-05-17T13:01:34;19.40;45.40
17296;DHT22;8766;51.480;6.872;2023-05-17T13:04:03;19.50;45.20
17296;DHT22;8766;51.480;6.872;2023-05-17T13:06:45;19.50;45.00
17296;DHT22;8766;51.480;6.872;2023-05-17T13:09:13;19.50;45.10
17296;DHT22;8766;51.480;6.872;2023-05-17T13:11:41;19.40;45.20
17296;DHT22;8766;51.480;6.872;2023-05-17T13:14:08;19.30;45.30
17296;DHT22;8766;51.480;6.872;2023-05-17T13:16:37;19.30;45.40
17296;DHT22;8766;51.480;6.872;2023-05-17T13:19:12;19.20;45.50
17296;DHT22;8766;51.480;6.872;2023-05-17T13:21:39;19.30;45.50
17296;DHT22;8766;51.480;6.872;2023-05-17T13:24:08;19.30;45.20
17296;DHT22;8766;51.480;6.872;2023-05-17T13:26:35;19.40;45.20
17296;DHT22;8766;51.480;6.872;2023-05-17T13:29:02;19.40;45.10
17296;DHT22;8766;51.480;6.872;2023-05-17T13:31:29;19.50;45.00
17296;DHT22;8766;51.480;6.872;2023-05-17T13:33:56;19.50;45.00
17296;DHT22;8766;51.480;6.872;2023-05-17T13:36:24;19.50;44.90
17296;DHT22;8766;51.480;6.872;2023-05-17T13:38:51;19.60;44.80
17296;DHT22;8766;51.480;6.872;2023-05-17T13:41:18;19.70;44.50
17296;DHT22;8766;51.480;6.872;2023-05-17T13:43:45;19.80;44.40
17296;DHT22;8766;51.480;6.872;2023-05-17T13:46:11;19.80;44.30
17296;DHT22;8766;51.480;6.872;2023-05-17T13:48:38;19.90;44.90
17296;DHT22;8766;51.480;6.872;2023-05-17T13:51:05;19.80;44.30
17296;DHT22;8766;51.480;6.872;2023-05-17T13:53:33;19.80;44.30
17296;DHT22;8766;51.480;6.872;2023-05-17T13:56:03;19.80;44.30
17296;DHT22;8766;51.480;6.872;2023-05-17T13:58:30;19.90;44.20
17296;DHT22;8766;51.480;6.872;2023-05-17T14:00:56;19.90;44.10
17296;DHT22;8766;51.480;6.872;2023-05-17T14:03:23;20.00;44.00
17296;DHT22;8766;51.480;6.872;2023-05-17T14:05:50;20.10;44.00
17296;DHT22;8766;51.480;6.872;2023-05-17T14:08:18;20.10;43.90
17296;DHT22;8766;51.480;6.872;2023-05-17T14:10:47;20.10;43.80
17296;DHT22;8766;51.480;6.872;2023-05-17T14:13:14;20.20;43.70
17296;DHT22;8766;51.480;6.872;2023-05-17T14:15:41;20.20;43.60
17296;DHT22;8766;51.480;6.872;2023-05-17T14:18:08;20.30;43.50
17296;DHT22;8766;51.480;6.872;2023-05-17T14:20:35;20.30;43.50
17296;DHT22;8766;51.480;6.872;2023-05-17T14:23:02;20.30;43.40
17296;DHT22;8766;51.480;6.872;2023-05-17T14:25:29;20.30;43.40
17296;DHT22;8766;51.480;6.872;2023-05-17T14:27:57;20.40;43.30
17296;DHT22;8766;51.480;6.872;2023-05-17T14:30:24;20.40;43.20
17296;DHT22;8766;51.480;6.872;2023-05-17T14:32:51;20.50;43.20
17296;DHT22;8766;51.480;6.872;2023-05-17T14:35:18;20.30;43.30
17296;DHT22;8766;51.480;6.872;2023-05-17T14:37:45;20.20;43.60
17296;DHT22;8766;51.480;6.872;2023-05-17T14:40:12;20.20;43.60
17296;DHT22;8766;51.480;6.872;2023-05-17T14:42:39;20.20;43.60
17296;DHT22;8766;51.480;6.872;2023-05-17T14:45:09;20.30;43.50
17296;DHT22;8766;51.480;6.872;2023-05-17T14:47:36;20.30;43.40
17296;DHT22;8766;51.480;6.872;2023-05-17T14:50:03;20.30;43.40
17296;DHT22;8766;51.480;6.872;2023-05-17T14:52:30;20.40;43.30
17296;DHT22;8766;51.480;6.872;2023-05-17T14:54:57;20.40;43.20
17296;DHT22;8766;51.480;6.872;2023-05-17T14:57:24;20.50;43.00
17296;DHT22;8766;51.480;6.872;2023-05-17T14:59:51;20.50;43.00
17296;DHT22;8766;51.480;6.872;2023-05-17T15:02:19;20.60;42.90
17296;DHT22;8766;51.480;6.872;2023-05-17T15:04:46;20.70;42.80
17296;DHT22;8766;51.480;6.872;2023-05-17T15:07:13;20.70;42.70
17296;DHT22;8766;51.480;6.872;2023-05-17T15:09:40;20.70;42.70
17296;DHT22;8766;51.480;6.872;2023-05-17T15:12:08;20.60;42.80
17296;DHT22;8766;51.480;6.872;2023-05-17T15:14:35;20.60;42.80
17296;DHT22;8766;51.480;6.872;2023-05-17T15:17:02;20.60;42.80
17296;DHT22;8766;51.480;6.872;2023-05-17T15:19:30;20.50;42.90
17296;DHT22;8766;51.480;6.872;2023-05-17T15:21:57;20.20;43.30
17296;DHT22;8766;51.480;6.872;2023-05-17T15:24:25;20.00;43.60
17296;DHT22;8766;51.480;6.872;2023-05-17T15:27:11;20.00;43.70
17296;DHT22;8766;51.480;6.872;2023-05-17T15:29:43;19.90;43.70
17296;DHT22;8766;51.480;6.872;2023-05-17T15:32:10;20.00;43.50
17296;DHT22;8766;51.480;6.872;2023-05-17T15:34:39;20.10;43.40
17296;DHT22;8766;51.480;6.872;2023-05-17T15:37:05;20.20;43.20
17296;DHT22;8766;51.480;6.872;2023-05-17T15:39:32;20.30;43.10
17296;DHT22;8766;51.480;6.872;2023-05-17T15:41:59;20.40;42.90
17296;DHT22;8766;51.480;6.872;2023-05-17T15:44:26;20.50;42.70
17296;DHT22;8766;51.480;6.872;2023-05-17T15:46:53;20.60;42.60
17296;DHT22;8766;51.480;6.872;2023-05-17T15:49:20;20.60;42.50
17296;DHT22;8766;51.480;6.872;2023-05-17T15:51:48;20.60;42.60